sensor_id;sensor_type;location;lat;lon;timestamp;P1;durP1;ratioP1;P2;durP2;ratioP2
44358;SDS011;30077;52.474;13.326;2022-12-07T00:04:39;18.58;;;10.18;;
44358;SDS011;30077;52.474;13.326;2022-12-07T00:09:39;19.80;;;10.27;;
44358;SDS011;30077;52.474;13.326;2022-12-07T00:14:41;22.05;;;10.68;;
44358;SDS011;30077;52.474;13.326;2022-12-07T00:19:42;18.27;;;9.33;;
44358;SDS011;30077;52.474;13.326;2022-12-07T00:24:42;19.60;;;10.17;;
44358;SDS011;30077;52.474;13.326;2022-12-07T00:29:42;18.52;;;9.80;;
44358;SDS011;30077;52.474;13.326;2022-12-07T00:34:43;19.40;;;10.40;;
44358;SDS011;30077;52.474;13.326;2022-12-07T00:39:43;19.02;;;10.25;;
44358;SDS011;30077;52.474;13.326;2022-12-07T00:44:45;19.40;;;9.48;;
44358;SDS011;30077;52.474;13.326;2022-12-07T00:49:45;14.98;;;8.77;;
44358;SDS011;30077;52.474;13.326;2022-12-07T00:54:45;19.33;;;9.27;;
44358;SDS011;30077;52.474;13.326;2022-12-07T00:59:46;14.68;;;8.43;;
44358;SDS011;30077;52.474;13.326;2022-12-07T01:04:47;16.65;;;8.45;;
44358;SDS011;30077;52.474;13.326;2022-12-07T01:09:47;15.13;;;8.40;;
44358;SDS011;30077;52.474;13.326;2022-12-07T01:14:48;15.10;;;7.93;;
44358;SDS011;30077;52.474;13.326;2022-12-07T01:19:48;11.63;;;7.15;;
44358;SDS011;30077;52.474;13.326;2022-12-07T01:24:48;13.50;;;7.03;;
44358;SDS011;30077;52.474;13.326;2022-12-07T01:29:49;13.35;;;7.45;;
44358;SDS011;30077;52.474;13.326;2022-12-07T01:34:50;13.73;;;7.07;;
44358;SDS011;30077;52.474;13.326;2022-12-07T01:39:51;11.68;;;6.60;;
44358;SDS011;30077;52.474;13.326;2022-12-07T01:50:31;12.23;;;6.78;;
44358;SDS011;30077;52.474;13.326;2022-12-07T01:55:31;14.82;;;7.70;;
44358;SDS011;30077;52.474;13.326;2022-12-07T02:00:34;12.95;;;7.43;;
44358;SDS011;30077;52.474;13.326;2022-12-07T02:05:35;10.87;;;6.50;;
44358;SDS011;30077;52.474;13.326;2022-12-07T02:21:15;13.15;;;7.30;;
44358;SDS011;30077;52.474;13.326;2022-12-07T02:31:46;10.52;;;6.93;;
44358;SDS011;30077;52.474;13.326;2022-12-07T02:37:00;9.93;;;6.53;;
44358;SDS011;30077;52.474;13.326;2022-12-07T02:42:16;10.63;;;6.70;;
44358;SDS011;30077;52.474;13.326;2022-12-07T02:47:25;12.85;;;7.75;;
44358;SDS011;30077;52.474;13.326;2022-12-07T02:57:31;15.18;;;7.80;;
44358;SDS011;30077;52.474;13.326;2022-12-07T03:18:25;13.82;;;7.93;;
44358;SDS011;30077;52.474;13.326;2022-12-07T03:23:30;14.68;;;8.25;;
44358;SDS011;30077;52.474;13.326;2022-12-07T03:28:35;15.27;;;7.80;;
44358;SDS011;30077;52.474;13.326;2022-12-07T03:33:43;15.60;;;8.40;;
44358;SDS011;30077;52.474;13.326;2022-12-07T03:43:56;16.67;;;8.13;;
44358;SDS011;30077;52.474;13.326;2022-12-07T03:49:08;18.73;;;9.05;;
44358;SDS011;30077;52.474;13.326;2022-12-07T03:54:35;15.63;;;8.57;;
44358;SDS011;30077;52.474;13.326;2022-12-07T03:59:40;18.92;;;8.98;;
44358;SDS011;30077;52.474;13.326;2022-12-07T04:04:44;18.98;;;9.60;;
44358;SDS011;30077;52.474;13.326;2022-12-07T04:09:44;15.93;;;9.27;;
44358;SDS011;30077;52.474;13.326;2022-12-07T04:14:44;17.38;;;9.57;;
44358;SDS011;30077;52.474;13.326;2022-12-07T04:19:45;21.13;;;10.90;;
44358;SDS011;30077;52.474;13.326;2022-12-07T04:24:45;21.20;;;10.80;;
44358;SDS011;30077;52.474;13.326;2022-12-07T04:29:45;25.83;;;12.23;;
44358;SDS011;30077;52.474;13.326;2022-12-07T04:34:45;27.45;;;12.73;;
44358;SDS011;30077;52.474;13.326;2022-12-07T04:39:46;24.60;;;12.35;;
44358;SDS011;30077;52.474;13.326;2022-12-07T04:44:46;29.27;;;13.98;;
44358;SDS011;30077;52.474;13.326;2022-12-07T04:49:46;28.67;;;14.25;;
44358;SDS011;30077;52.474;13.326;2022-12-07T04:54:46;28.75;;;14.60;;
44358;SDS011;30077;52.474;13.326;2022-12-07T04:59:47;33.72;;;15.45;;
44358;SDS011;30077;52.474;13.326;2022-12-07T05:04:47;34.28;;;15.93;;
44358;SDS011;30077;52.474;13.326;2022-12-07T05:09:47;38.10;;;16.27;;
44358;SDS011;30077;52.474;13.326;2022-12-07T05:14:47;35.80;;;16.40;;
44358;SDS011;30077;52.474;13.326;2022-12-07T05:19:48;35.33;;;16.88;;
44358;SDS011;30077;52.474;13.326;2022-12-07T05:24:48;36.67;;;16.48;;
44358;SDS011;30077;52.474;13.326;2022-12-07T05:29:49;37.25;;;18.08;;
44358;SDS011;30077;52.474;13.326;2022-12-07T05:34:50;41.08;;;19.48;;
44358;SDS011;30077;52.474;13.326;2022-12-07T05:39:50;47.33;;;18.67;;
44358;SDS011;30077;52.474;13.326;2022-12-07T05:44:50;41.72;;;19.52;;
44358;SDS011;30077;52.474;13.326;2022-12-07T05:49:51;41.92;;;19.20;;
44358;SDS011;30077;52.474;13.326;2022-12-07T05:54:51;45.53;;;19.48;;
44358;SDS011;30077;52.474;13.326;2022-12-07T05:59:52;45.20;;;18.85;;
44358;SDS011;30077;52.474;13.326;2022-12-07T06:04:52;44.40;;;19.45;;
44358;SDS011;30077;52.474;13.326;2022-12-07T06:09:52;47.10;;;20.92;;
44358;SDS011;30077;52.474;13.326;2022-12-07T06:14:53;48.78;;;20.35;;
44358;SDS011;30077;52.474;13.326;2022-12-07T06:19:53;46.97;;;20.50;;
44358;SDS011;30077;52.474;13.326;2022-12-07T06:24:53;49.47;;;21.30;;
44358;SDS011;30077;52.474;13.326;2022-12-07T06:29:54;47.33;;;20.13;;
44358;SDS011;30077;52.474;13.326;2022-12-07T06:34:54;40.17;;;19.67;;
44358;SDS011;30077;52.474;13.326;2022-12-07T06:39:54;43.83;;;20.30;;
44358;SDS011;30077;52.474;13.326;2022-12-07T06:44:54;49.25;;;20.98;;
44358;SDS011;30077;52.474;13.326;2022-12-07T06:49:55;44.23;;;21.87;;
44358;SDS011;30077;52.474;13.326;2022-12-07T06:54:55;49.55;;;22.13;;
44358;SDS011;30077;52.474;13.326;2022-12-07T06:59:55;57.50;;;25.60;;
44358;SDS011;30077;52.474;13.326;2022-12-07T07:04:55;48.40;;;21.50;;
44358;SDS011;30077;52.474;13.326;2022-12-07T07:09:56;47.90;;;21.73;;
44358;SDS011;30077;52.474;13.326;2022-12-07T07:14:56;42.75;;;21.25;;
44358;SDS011;30077;52.474;13.326;2022-12-07T07:19:56;44.42;;;21.65;;
44358;SDS011;30077;52.474;13.326;2022-12-07T07:24:56;46.42;;;20.08;;
44358;SDS011;30077;52.474;13.326;2022-12-07T07:29:57;49.92;;;24.10;;
44358;SDS011;30077;52.474;13.326;2022-12-07T07:34:57;45.72;;;21.10;;
44358;SDS011;30077;52.474;13.326;2022-12-07T07:39:57;37.00;;;19.63;;
44358;SDS011;30077;52.474;13.326;2022-12-07T07:44:59;40.03;;;19.52;;
44358;SDS011;30077;52.474;13.326;2022-12-07T07:49:59;44.03;;;18.70;;
44358;SDS011;30077;52.474;13.326;2022-12-07T07:54:59;29.45;;;15.18;;
44358;SDS011;30077;52.474;13.326;2022-12-07T08:00:00;30.20;;;14.37;;
44358;SDS011;30077;52.474;13.326;2022-12-07T08:05:00;24.92;;;12.60;;
44358;SDS011;30077;52.474;13.326;2022-12-07T08:10:00;32.57;;;14.53;;
44358;SDS011;30077;52.474;13.326;2022-12-07T08:15:01;23.70;;;11.40;;
44358;SDS011;30077;52.474;13.326;2022-12-07T08:20:01;17.25;;;9.45;;
44358;SDS011;30077;52.474;13.326;2022-12-07T08:25:05;14.50;;;7.70;;
44358;SDS011;30077;52.474;13.326;2022-12-07T08:30:06;11.77;;;6.68;;
44358;SDS011;30077;52.474;13.326;2022-12-07T08:35:07;9.57;;;5.05;;
44358;SDS011;30077;52.474;13.326;2022-12-07T08:40:08;8.07;;;4.00;;
44358;SDS011;30077;52.474;13.326;2022-12-07T08:50:11;5.97;;;3.58;;
44358;SDS011;30077;52.474;13.326;2022-12-07T08:55:13;7.33;;;3.33;;
44358;SDS011;30077;52.474;13.326;2022-12-07T09:00:14;7.82;;;3.70;;
44358;SDS011;30077;52.474;13.326;2022-12-07T09:05:15;15.47;;;3.60;;
44358;SDS011;30077;52.474;13.326;2022-12-07T09:10:16;7.23;;;3.20;;
44358;SDS011;30077;52.474;13.326;2022-12-07T09:15:16;13.07;;;3.88;;
44358;SDS011;30077;52.474;13.326;2022-12-07T09:20:17;10.53;;;4.67;;
44358;SDS011;30077;52.474;13.326;2022-12-07T09:25:17;7.10;;;3.33;;
44358;SDS011;30077;52.474;13.326;2022-12-07T09:30:17;8.50;;;4.05;;
44358;SDS011;30077;52.474;13.326;2022-12-07T09:35:17;5.80;;;3.42;;
44358;SDS011;30077;52.474;13.326;2022-12-07T09:40:18;5.85;;;2.45;;
44358;SDS011;30077;52.474;13.326;2022-12-07T09:45:22;2.38;;;2.10;;
44358;SDS011;30077;52.474;13.326;2022-12-07T09:50:25;3.50;;;2.53;;
44358;SDS011;30077;52.474;13.326;2022-12-07T09:55:28;4.65;;;3.00;;
44358;SDS011;30077;52.474;13.326;2022-12-07T10:00:29;4.97;;;3.30;;
44358;SDS011;30077;52.474;13.326;2022-12-07T10:05:30;9.20;;;3.10;;
44358;SDS011;30077;52.474;13.326;2022-12-07T10:10:36;2.67;;;2.47;;
44358;SDS011;30077;52.474;13.326;2022-12-07T10:20:47;9.25;;;3.33;;
44358;SDS011;30077;52.474;13.326;2022-12-07T10:25:48;5.00;;;2.47;;
44358;SDS011;30077;52.474;13.326;2022-12-07T10:31:02;9.57;;;2.63;;
44358;SDS011;30077;52.474;13.326;2022-12-07T10:36:16;6.40;;;3.03;;
44358;SDS011;30077;52.474;13.326;2022-12-07T10:41:20;7.10;;;3.35;;
44358;SDS011;30077;52.474;13.326;2022-12-07T10:46:31;7.93;;;3.58;;
44358;SDS011;30077;52.474;13.326;2022-12-07T11:07:22;5.97;;;4.13;;
44358;SDS011;30077;52.474;13.326;2022-12-07T11:18:08;6.85;;;4.57;;
44358;SDS011;30077;52.474;13.326;2022-12-07T11:23:37;9.70;;;4.80;;
44358;SDS011;30077;52.474;13.326;2022-12-07T11:28:52;7.63;;;4.65;;
44358;SDS011;30077;52.474;13.326;2022-12-07T11:34:16;9.50;;;4.50;;
44358;SDS011;30077;52.474;13.326;2022-12-07T11:39:38;7.43;;;5.00;;
44358;SDS011;30077;52.474;13.326;2022-12-07T11:44:50;8.63;;;4.70;;
44358;SDS011;30077;52.474;13.326;2022-12-07T11:50:03;7.40;;;4.90;;
44358;SDS011;30077;52.474;13.326;2022-12-07T11:55:26;8.45;;;4.78;;
44358;SDS011;30077;52.474;13.326;2022-12-07T12:00:27;6.25;;;3.53;;
44358;SDS011;30077;52.474;13.326;2022-12-07T12:05:27;9.57;;;4.30;;
44358;SDS011;30077;52.474;13.326;2022-12-07T12:10:38;6.60;;;3.83;;
44358;SDS011;30077;52.474;13.326;2022-12-07T12:16:02;9.25;;;3.50;;
44358;SDS011;30077;52.474;13.326;2022-12-07T12:21:17;8.82;;;3.25;;
44358;SDS011;30077;52.474;13.326;2022-12-07T12:26:23;8.25;;;3.90;;
44358;SDS011;30077;52.474;13.326;2022-12-07T12:46:50;9.00;;;3.08;;
44358;SDS011;30077;52.474;13.326;2022-12-07T12:56:57;7.15;;;3.10;;
44358;SDS011;30077;52.474;13.326;2022-12-07T13:02:36;11.20;;;4.60;;
44358;SDS011;30077;52.474;13.326;2022-12-07T13:12:54;7.57;;;3.67;;
44358;SDS011;30077;52.474;13.326;2022-12-07T13:18:04;8.07;;;3.25;;
44358;SDS011;30077;52.474;13.326;2022-12-07T13:23:25;6.13;;;3.55;;
44358;SDS011;30077;52.474;13.326;2022-12-07T13:28:26;6.80;;;2.90;;
44358;SDS011;30077;52.474;13.326;2022-12-07T13:33:37;7.32;;;3.03;;
44358;SDS011;30077;52.474;13.326;2022-12-07T13:38:38;7.70;;;2.70;;
44358;SDS011;30077;52.474;13.326;2022-12-07T13:43:52;6.97;;;2.40;;
44358;SDS011;30077;52.474;13.326;2022-12-07T13:49:00;7.05;;;2.60;;
44358;SDS011;30077;52.474;13.326;2022-12-07T13:54:06;5.93;;;2.60;;
44358;SDS011;30077;52.474;13.326;2022-12-07T13:59:14;8.88;;;2.40;;
44358;SDS011;30077;52.474;13.326;2022-12-07T14:04:33;7.82;;;2.97;;
44358;SDS011;30077;52.474;13.326;2022-12-07T14:09:36;10.80;;;2.85;;
44358;SDS011;30077;52.474;13.326;2022-12-07T14:14:36;8.02;;;2.70;;
44358;SDS011;30077;52.474;13.326;2022-12-07T14:19:58;10.15;;;2.72;;
44358;SDS011;30077;52.474;13.326;2022-12-07T14:25:14;9.30;;;2.80;;
44358;SDS011;30077;52.474;13.326;2022-12-07T14:30:18;10.35;;;3.20;;
44358;SDS011;30077;52.474;13.326;2022-12-07T14:35:19;11.70;;;3.38;;
44358;SDS011;30077;52.474;13.326;2022-12-07T14:40:23;6.18;;;2.45;;
44358;SDS011;30077;52.474;13.326;2022-12-07T14:45:27;8.18;;;3.35;;
44358;SDS011;30077;52.474;13.326;2022-12-07T14:50:29;7.97;;;3.00;;
44358;SDS011;30077;52.474;13.326;2022-12-07T14:55:30;8.82;;;3.20;;
44358;SDS011;30077;52.474;13.326;2022-12-07T15:00:31;17.17;;;3.75;;
44358;SDS011;30077;52.474;13.326;2022-12-07T15:05:33;20.20;;;8.90;;
44358;SDS011;30077;52.474;13.326;2022-12-07T15:10:34;12.13;;;3.58;;
44358;SDS011;30077;52.474;13.326;2022-12-07T15:15:38;10.07;;;3.15;;
44358;SDS011;30077;52.474;13.326;2022-12-07T15:20:38;12.73;;;3.13;;
44358;SDS011;30077;52.474;13.326;2022-12-07T15:25:42;13.75;;;4.03;;
44358;SDS011;30077;52.474;13.326;2022-12-07T15:30:43;7.32;;;3.00;;
44358;SDS011;30077;52.474;13.326;2022-12-07T15:35:45;16.70;;;4.00;;
44358;SDS011;30077;52.474;13.326;2022-12-07T15:40:48;11.02;;;3.10;;
44358;SDS011;30077;52.474;13.326;2022-12-07T15:45:49;9.27;;;3.60;;
44358;SDS011;30077;52.474;13.326;2022-12-07T15:50:49;23.90;;;4.10;;
44358;SDS011;30077;52.474;13.326;2022-12-07T15:55:50;13.38;;;3.70;;
44358;SDS011;30077;52.474;13.326;2022-12-07T16:00:50;9.70;;;3.80;;
44358;SDS011;30077;52.474;13.326;2022-12-07T16:05:50;12.77;;;2.83;;
44358;SDS011;30077;52.474;13.326;2022-12-07T16:10:52;6.95;;;2.85;;
44358;SDS011;30077;52.474;13.326;2022-12-07T16:15:52;12.13;;;3.38;;
44358;SDS011;30077;52.474;13.326;2022-12-07T16:20:52;6.18;;;2.78;;
44358;SDS011;30077;52.474;13.326;2022-12-07T16:25:53;10.52;;;2.97;;
44358;SDS011;30077;52.474;13.326;2022-12-07T16:30:59;10.50;;;4.05;;
44358;SDS011;30077;52.474;13.326;2022-12-07T16:36:02;14.68;;;4.70;;
44358;SDS011;30077;52.474;13.326;2022-12-07T16:41:05;13.00;;;4.75;;
44358;SDS011;30077;52.474;13.326;2022-12-07T16:46:06;17.85;;;5.03;;
44358;SDS011;30077;52.474;13.326;2022-12-07T16:51:08;17.15;;;6.20;;
44358;SDS011;30077;52.474;13.326;2022-12-07T16:56:11;18.88;;;7.25;;
44358;SDS011;30077;52.474;13.326;2022-12-07T17:01:18;10.80;;;3.72;;
44358;SDS011;30077;52.474;13.326;2022-12-07T17:06:22;11.07;;;4.22;;
44358;SDS011;30077;52.474;13.326;2022-12-07T17:11:29;24.58;;;7.70;;
44358;SDS011;30077;52.474;13.326;2022-12-07T17:16:32;7.65;;;3.58;;
44358;SDS011;30077;52.474;13.326;2022-12-07T17:21:33;14.10;;;4.78;;
44358;SDS011;30077;52.474;13.326;2022-12-07T17:26:34;17.08;;;7.68;;
44358;SDS011;30077;52.474;13.326;2022-12-07T17:31:34;11.95;;;4.35;;
44358;SDS011;30077;52.474;13.326;2022-12-07T17:36:34;8.35;;;4.25;;
44358;SDS011;30077;52.474;13.326;2022-12-07T17:41:35;9.05;;;4.20;;
44358;SDS011;30077;52.474;13.326;2022-12-07T17:46:55;9.18;;;4.00;;
44358;SDS011;30077;52.474;13.326;2022-12-07T17:52:01;14.65;;;4.30;;
44358;SDS011;30077;52.474;13.326;2022-12-07T17:57:23;12.18;;;4.30;;
44358;SDS011;30077;52.474;13.326;2022-12-07T18:02:23;12.88;;;4.35;;
44358;SDS011;30077;52.474;13.326;2022-12-07T18:07:23;12.30;;;4.35;;
44358;SDS011;30077;52.474;13.326;2022-12-07T18:12:24;9.30;;;3.90;;
44358;SDS011;30077;52.474;13.326;2022-12-07T18:17:24;16.88;;;4.93;;
44358;SDS011;30077;52.474;13.326;2022-12-07T18:22:24;20.13;;;5.22;;
44358;SDS011;30077;52.474;13.326;2022-12-07T18:27:24;12.70;;;4.80;;
44358;SDS011;30077;52.474;13.326;2022-12-07T18:32:25;16.05;;;4.45;;
44358;SDS011;30077;52.474;13.326;2022-12-07T18:37:25;11.32;;;4.55;;
44358;SDS011;30077;52.474;13.326;2022-12-07T18:42:26;7.80;;;4.10;;
44358;SDS011;30077;52.474;13.326;2022-12-07T18:47:26;12.27;;;4.68;;
44358;SDS011;30077;52.474;13.326;2022-12-07T18:52:27;30.15;;;11.43;;
44358;SDS011;30077;52.474;13.326;2022-12-07T18:57:27;23.50;;;10.53;;
44358;SDS011;30077;52.474;13.326;2022-12-07T19:02:30;12.82;;;5.25;;
44358;SDS011;30077;52.474;13.326;2022-12-07T19:07:31;19.60;;;8.10;;
44358;SDS011;30077;52.474;13.326;2022-12-07T19:12:31;11.40;;;5.78;;
44358;SDS011;30077;52.474;13.326;2022-12-07T19:17:31;12.23;;;5.43;;
44358;SDS011;30077;52.474;13.326;2022-12-07T19:22:34;12.85;;;5.25;;
44358;SDS011;30077;52.474;13.326;2022-12-07T19:27:35;10.18;;;5.35;;
44358;SDS011;30077;52.474;13.326;2022-12-07T19:32:35;15.25;;;5.40;;
44358;SDS011;30077;52.474;13.326;2022-12-07T19:37:36;13.52;;;5.65;;
44358;SDS011;30077;52.474;13.326;2022-12-07T19:42:37;9.60;;;5.13;;
44358;SDS011;30077;52.474;13.326;2022-12-07T19:47:37;17.35;;;5.80;;
44358;SDS011;30077;52.474;13.326;2022-12-07T19:52:37;10.30;;;5.45;;
44358;SDS011;30077;52.474;13.326;2022-12-07T19:57:38;12.45;;;6.47;;
44358;SDS011;30077;52.474;13.326;2022-12-07T20:02:38;23.00;;;5.47;;
44358;SDS011;30077;52.474;13.326;2022-12-07T20:07:38;15.73;;;5.28;;
44358;SDS011;30077;52.474;13.326;2022-12-07T20:12:38;11.23;;;6.00;;
44358;SDS011;30077;52.474;13.326;2022-12-07T20:17:57;26.50;;;10.80;;
44358;SDS011;30077;52.474;13.326;2022-12-07T20:22:57;16.67;;;7.35;;
44358;SDS011;30077;52.474;13.326;2022-12-07T20:27:58;13.38;;;6.70;;
44358;SDS011;30077;52.474;13.326;2022-12-07T20:32:58;24.10;;;9.13;;
44358;SDS011;30077;52.474;13.326;2022-12-07T20:37:58;16.17;;;7.53;;
44358;SDS011;30077;52.474;13.326;2022-12-07T20:42:59;29.33;;;11.55;;
44358;SDS011;30077;52.474;13.326;2022-12-07T20:47:59;32.08;;;14.75;;
44358;SDS011;30077;52.474;13.326;2022-12-07T20:52:59;14.87;;;6.97;;
44358;SDS011;30077;52.474;13.326;2022-12-07T20:57:59;14.63;;;6.25;;
44358;SDS011;30077;52.474;13.326;2022-12-07T21:03:00;13.68;;;6.68;;
44358;SDS011;30077;52.474;13.326;2022-12-07T21:08:01;12.20;;;5.88;;
44358;SDS011;30077;52.474;13.326;2022-12-07T21:13:02;15.10;;;6.70;;
44358;SDS011;30077;52.474;13.326;2022-12-07T21:18:03;19.13;;;6.47;;
44358;SDS011;30077;52.474;13.326;2022-12-07T21:23:04;14.50;;;6.55;;
44358;SDS011;30077;52.474;13.326;2022-12-07T21:28:04;14.93;;;6.50;;
44358;SDS011;30077;52.474;13.326;2022-12-07T21:38:07;12.77;;;5.75;;
44358;SDS011;30077;52.474;13.326;2022-12-07T21:43:07;22.20;;;8.90;;
44358;SDS011;30077;52.474;13.326;2022-12-07T21:48:08;18.70;;;7.93;;
44358;SDS011;30077;52.474;13.326;2022-12-07T21:53:08;14.50;;;6.45;;
44358;SDS011;30077;52.474;13.326;2022-12-07T21:58:08;12.40;;;6.25;;
44358;SDS011;30077;52.474;13.326;2022-12-07T22:03:09;17.25;;;6.45;;
44358;SDS011;30077;52.474;13.326;2022-12-07T22:08:11;15.17;;;6.40;;
44358;SDS011;30077;52.474;13.326;2022-12-07T22:13:11;16.02;;;6.72;;
44358;SDS011;30077;52.474;13.326;2022-12-07T22:18:11;14.95;;;6.78;;
44358;SDS011;30077;52.474;13.326;2022-12-07T22:23:11;13.35;;;6.55;;
44358;SDS011;30077;52.474;13.326;2022-12-07T22:28:12;15.32;;;6.28;;
44358;SDS011;30077;52.474;13.326;2022-12-07T22:33:12;12.68;;;5.50;;
44358;SDS011;30077;52.474;13.326;2022-12-07T22:38:12;11.80;;;6.43;;
44358;SDS011;30077;52.474;13.326;2022-12-07T22:43:13;11.73;;;6.13;;
44358;SDS011;30077;52.474;13.326;2022-12-07T22:48:14;13.40;;;5.78;;
44358;SDS011;30077;52.474;13.326;2022-12-07T22:53:14;16.57;;;6.53;;
44358;SDS011;30077;52.474;13.326;2022-12-07T22:58:15;14.00;;;6.07;;
44358;SDS011;30077;52.474;13.326;2022-12-07T23:03:15;29.90;;;10.93;;
44358;SDS011;30077;52.474;13.326;2022-12-07T23:08:16;14.35;;;6.90;;
44358;SDS011;30077;52.474;13.326;2022-12-07T23:13:17;14.07;;;5.90;;
44358;SDS011;30077;52.474;13.326;2022-12-07T23:18:34;13.70;;;6.03;;
44358;SDS011;30077;52.474;13.326;2022-12-07T23:23:34;11.87;;;5.73;;
44358;SDS011;30077;52.474;13.326;2022-12-07T23:28:35;20.33;;;6.82;;
44358;SDS011;30077;52.474;13.326;2022-12-07T23:33:36;13.10;;;6.10;;
44358;SDS011;30077;52.474;13.326;2022-12-07T23:38:37;14.52;;;5.85;;
44358;SDS011;30077;52.474;13.326;2022-12-07T23:43:39;12.70;;;5.60;;
44358;SDS011;30077;52.474;13.326;2022-12-07T23:48:40;17.45;;;6.32;;
44358;SDS011;30077;52.474;13.326;2022-12-07T23:53:42;16.00;;;6.20;;
44358;SDS011;30077;52.474;13.326;2022-12-07T23:58:44;13.63;;;6.18;;
